createdAt,value
2022-10-16T00:00:14.648Z,90.63
2022-10-16T00:00:47.837Z,90.44
2022-10-16T00:01:21.930Z,90.56
2022-10-16T00:01:58.087Z,90.57
2022-10-16T00:02:32.030Z,90.24
2022-10-16T00:03:06.330Z,90.29
2022-10-16T00:03:38.939Z,90.00
2022-10-16T00:04:11.017Z,90.03
2022-10-16T00:04:42.526Z,89.66
2022-10-16T00:05:17.129Z,90.03
2022-10-16T00:05:50.921Z,90.06
2022-10-16T00:06:23.299Z,90.34
2022-10-16T00:06:54.759Z,89.88
2022-10-16T00:07:26.752Z,90.05
2022-10-16T00:07:58.599Z,90.55
2022-10-16T00:08:31.247Z,90.44
2022-10-16T00:09:05.673Z,90.17
2022-10-16T00:09:37.111Z,90.17
2022-10-16T00:10:13.742Z,89.92
2022-10-16T00:10:45.283Z,90.36
2022-10-16T00:11:28.119Z,89.91
2022-10-16T00:11:59.570Z,89.90
2022-10-16T00:12:31.161Z,90.16
2022-10-16T00:13:03.402Z,90.02
2022-10-16T00:13:36.973Z,90.30
2022-10-16T00:14:17.146Z,90.07
2022-10-16T00:14:48.725Z,89.60
2022-10-16T00:15:25.758Z,89.57
2022-10-16T00:16:00.296Z,89.78
2022-10-16T00:16:32.458Z,89.55
2022-10-16T00:17:08.299Z,89.93
2022-10-16T00:17:42.402Z,90.01
2022-10-16T00:18:20.198Z,90.16
2022-10-16T00:18:51.696Z,90.36
2022-10-16T00:19:25.896Z,90.14
2022-10-16T00:20:02.253Z,90.04
2022-10-16T00:20:37.843Z,89.88
2022-10-16T00:21:15.206Z,89.85
2022-10-16T00:21:46.843Z,89.93
2022-10-16T00:22:30.476Z,90.48
2022-10-16T00:23:05.180Z,90.36
2022-10-16T00:23:40.656Z,90.07
2022-10-16T00:24:12.074Z,90.13
2022-10-16T00:24:45.521Z,90.14
2022-10-16T00:25:19.293Z,90.30
2022-10-16T00:26:01.639Z,90.14
2022-10-16T00:26:39.855Z,89.97
2022-10-16T00:27:11.572Z,89.79
2022-10-16T00:27:43.216Z,90.12
2022-10-16T00:28:19.110Z,89.96
2022-10-16T00:28:53.657Z,89.64
2022-10-16T00:29:27.470Z,89.97
2022-10-16T00:30:32.845Z,89.80
2022-10-16T00:31:08.354Z,90.10
2022-10-16T00:31:40.024Z,90.00
2022-10-16T00:32:14.117Z,90.09
2022-10-16T00:32:45.587Z,89.79
2022-10-16T00:33:17.124Z,89.62
2022-10-16T00:33:49.497Z,89.48
2022-10-16T00:34:23.354Z,89.31
2022-10-16T00:34:55.831Z,89.99
2022-10-16T00:35:27.518Z,89.31
2022-10-16T00:36:04.364Z,89.92
2022-10-16T00:36:41.100Z,89.96
2022-10-16T00:37:15.694Z,90.06
2022-10-16T00:37:47.267Z,90.08
2022-10-16T00:38:21.055Z,89.57
2022-10-16T00:38:55.818Z,89.61
2022-10-16T00:39:30.448Z,89.78
2022-10-16T00:40:01.868Z,89.68
2022-10-16T00:40:36.428Z,89.79
2022-10-16T00:41:10.756Z,90.06
2022-10-16T00:41:42.341Z,90.11
2022-10-16T00:42:19.005Z,90.42
2022-10-16T00:42:50.630Z,90.30
2022-10-16T00:43:52.884Z,90.45
2022-10-16T00:44:45.804Z,90.00
2022-10-16T00:45:17.451Z,90.42
2022-10-16T00:45:48.812Z,90.35
2022-10-16T00:46:24.050Z,90.28
2022-10-16T00:46:55.530Z,90.34
2022-10-16T00:47:33.316Z,90.73
2022-10-16T00:48:42.172Z,90.23
2022-10-16T00:49:22.587Z,90.81
2022-10-16T00:50:24.527Z,90.76
2022-10-16T00:50:59.319Z,90.34
2022-10-16T00:51:36.844Z,90.28
2022-10-16T00:52:08.813Z,90.68
2022-10-16T00:52:47.814Z,90.27
2022-10-16T00:53:19.212Z,90.28
2022-10-16T00:53:53.901Z,90.83
2022-10-16T00:54:31.607Z,90.65
2022-10-16T00:55:09.816Z,90.57
2022-10-16T00:55:42.646Z,90.64
2022-10-16T00:56:15.496Z,90.28
2022-10-16T00:56:50.798Z,90.09
2022-10-16T00:57:22.574Z,90.19
2022-10-16T00:57:54.376Z,90.25
2022-10-16T00:58:26.166Z,90.47
2022-10-16T00:58:59.166Z,90.30
2022-10-16T00:59:39.369Z,90.82
2022-10-16T01:00:13.853Z,90.72
2022-10-16T01:00:45.330Z,90.26
2022-10-16T01:01:20.303Z,90.48
2022-10-16T01:01:52.697Z,90.46
2022-10-16T01:02:27.115Z,90.59
2022-10-16T01:03:02.295Z,90.36
2022-10-16T01:03:36.402Z,90.75
2022-10-16T01:04:09.959Z,90.23
2022-10-16T01:04:45.696Z,90.63
2022-10-16T01:05:18.458Z,90.51
2022-10-16T01:06:16.083Z,90.36
2022-10-16T01:07:05.108Z,90.58
2022-10-16T01:08:03.825Z,90.48
2022-10-16T01:08:45.575Z,90.54
2022-10-16T01:09:26.096Z,90.57
2022-10-16T01:10:16.744Z,90.21
2022-10-16T01:11:11.324Z,90.28
2022-10-16T01:11:48.619Z,90.88
2022-10-16T01:12:32.058Z,90.68
2022-10-16T01:13:11.918Z,90.65
2022-10-16T01:13:49.591Z,90.60
2022-10-16T01:14:33.074Z,90.68
2022-10-16T01:15:13.055Z,91.00
2022-10-16T01:16:10.905Z,90.13
2022-10-16T01:16:58.044Z,90.76
2022-10-16T01:17:53.459Z,90.81
2022-10-16T01:18:38.908Z,90.58
2022-10-16T01:19:18.277Z,91.03
2022-10-16T01:20:09.042Z,91.01
2022-10-16T01:20:50.100Z,90.82
2022-10-16T01:21:49.838Z,90.60
2022-10-16T01:22:37.532Z,90.69
2022-10-16T01:23:20.953Z,90.38
2022-10-16T01:24:11.519Z,90.29
2022-10-16T01:24:57.681Z,90.82
2022-10-16T01:25:47.284Z,91.13
2022-10-16T01:26:56.403Z,90.82
2022-10-16T01:27:37.064Z,90.80
2022-10-16T01:28:12.959Z,90.25
2022-10-16T01:29:10.737Z,90.83
2022-10-16T01:29:52.510Z,90.99
2022-10-16T01:30:31.746Z,90.95
2022-10-16T01:31:06.704Z,90.83
2022-10-16T01:31:41.492Z,90.86
2022-10-16T01:32:20.340Z,90.36
2022-10-16T01:33:00.872Z,90.90
2022-10-16T01:33:46.485Z,90.72
2022-10-16T01:34:33.034Z,91.07
2022-10-16T01:35:49.517Z,90.43
2022-10-16T01:36:27.706Z,90.77
2022-10-16T01:37:06.355Z,91.09
2022-10-16T01:37:40.838Z,91.04
2022-10-16T01:38:22.656Z,90.85
2022-10-16T01:39:01.878Z,90.70
2022-10-16T01:39:42.420Z,90.71
2022-10-16T01:40:20.709Z,90.21
2022-10-16T01:40:58.759Z,90.37
2022-10-16T01:41:42.333Z,90.54
2022-10-16T01:42:28.241Z,90.54
2022-10-16T01:43:19.934Z,90.60
2022-10-16T01:44:02.546Z,90.66
2022-10-16T01:44:39.286Z,90.75
2022-10-16T01:45:15.739Z,90.46
2022-10-16T01:45:51.567Z,90.78
2022-10-16T01:46:30.589Z,90.65
2022-10-16T01:47:02.603Z,90.41
2022-10-16T01:47:39.094Z,90.82
2022-10-16T01:48:15.180Z,90.86
2022-10-16T01:48:51.279Z,91.00
2022-10-16T01:49:32.719Z,90.64
2022-10-16T01:50:06.465Z,90.83
2022-10-16T01:50:41.495Z,90.63
2022-10-16T01:51:15.793Z,90.66
2022-10-16T01:51:56.156Z,90.96
2022-10-16T01:52:30.963Z,90.60
2022-10-16T01:53:05.758Z,90.50
2022-10-16T01:53:38.173Z,90.59
2022-10-16T01:54:17.504Z,90.58
2022-10-16T01:54:53.395Z,90.61
2022-10-16T01:55:31.801Z,90.71
2022-10-16T01:56:11.221Z,90.66
2022-10-16T01:56:43.756Z,90.99
2022-10-16T01:57:24.001Z,90.61
2022-10-16T01:57:56.609Z,90.68
2022-10-16T01:58:36.323Z,89.97
2022-10-16T01:59:17.946Z,90.56
2022-10-16T01:59:56.939Z,90.33
2022-10-16T02:00:32.458Z,90.45
2022-10-16T02:01:06.079Z,90.78
2022-10-16T02:01:41.421Z,90.51
2022-10-16T02:02:16.058Z,90.78
2022-10-16T02:02:53.995Z,90.58
2022-10-16T02:03:34.162Z,90.98
2022-10-16T02:04:17.647Z,90.74
2022-10-16T02:04:59.255Z,90.88
2022-10-16T02:05:40.820Z,90.76
2022-10-16T02:06:14.327Z,90.68
2022-10-16T02:06:45.961Z,90.69
2022-10-16T02:07:20.585Z,91.02
2022-10-16T02:07:59.431Z,90.89
2022-10-16T02:08:36.925Z,90.57
2022-10-16T02:09:17.158Z,90.31
2022-10-16T02:09:48.809Z,90.59
2022-10-16T02:10:32.840Z,90.86
2022-10-16T02:11:06.752Z,90.57
2022-10-16T02:11:44.979Z,91.13
2022-10-16T02:12:26.185Z,90.54
2022-10-16T02:13:12.769Z,90.80
2022-10-16T02:14:01.033Z,90.25
2022-10-16T02:14:38.650Z,90.71
2022-10-16T02:15:11.835Z,90.96
2022-10-16T02:15:45.969Z,90.65
2022-10-16T02:16:24.535Z,90.86
2022-10-16T02:17:00.719Z,90.67
2022-10-16T02:17:36.022Z,90.44
2022-10-16T02:18:11.137Z,90.67
2022-10-16T02:18:45.023Z,90.35
2022-10-16T02:19:21.306Z,90.66
2022-10-16T02:20:01.626Z,90.65
2022-10-16T02:21:31.466Z,90.41
2022-10-16T02:22:07.709Z,90.53
2022-10-16T02:22:49.594Z,91.27
2022-10-16T02:23:33.069Z,90.93
2022-10-16T02:24:21.656Z,90.77
2022-10-16T02:25:09.313Z,91.14
2022-10-16T02:25:45.472Z,90.92
2022-10-16T02:26:27.384Z,90.70
2022-10-16T02:27:09.650Z,90.46
2022-10-16T02:28:01.316Z,90.52
2022-10-16T02:28:56.736Z,90.66
2022-10-16T02:29:31.745Z,90.74
2022-10-16T02:30:10.203Z,91.03
2022-10-16T02:31:02.580Z,90.71
2022-10-16T02:31:41.670Z,90.98
2022-10-16T02:32:20.775Z,90.62
2022-10-16T02:33:01.636Z,90.56
2022-10-16T02:33:37.240Z,90.91
2022-10-16T02:34:13.433Z,90.90
2022-10-16T02:34:51.985Z,90.83
2022-10-16T02:35:29.785Z,90.86
2022-10-16T02:36:04.429Z,90.89
2022-10-16T02:37:10.251Z,91.51
2022-10-16T02:37:55.840Z,91.14
2022-10-16T02:38:31.334Z,91.17
2022-10-16T02:39:13.285Z,91.00
2022-10-16T02:39:44.914Z,91.48
2022-10-16T02:40:22.939Z,91.61
2022-10-16T02:40:57.633Z,90.89
2022-10-16T02:41:37.651Z,91.28
2022-10-16T02:42:14.090Z,91.27
2022-10-16T02:42:52.892Z,91.20
2022-10-16T02:43:35.544Z,91.11
2022-10-16T02:44:10.794Z,90.93
2022-10-16T02:44:42.253Z,91.28
2022-10-16T02:45:14.066Z,91.47
2022-10-16T02:45:59.561Z,91.22
2022-10-16T02:46:40.183Z,91.03
2022-10-16T02:47:46.953Z,91.17
2022-10-16T02:48:20.165Z,91.56
2022-10-16T02:48:52.812Z,91.41
2022-10-16T02:49:26.105Z,91.79
2022-10-16T02:49:57.486Z,91.33
2022-10-16T02:50:31.972Z,91.61
2022-10-16T02:51:06.224Z,92.24
2022-10-16T02:51:41.570Z,91.77
2022-10-16T02:52:21.686Z,91.79
2022-10-16T02:53:08.136Z,91.66
2022-10-16T02:53:41.147Z,91.80
2022-10-16T02:54:21.041Z,91.36
2022-10-16T02:54:55.345Z,91.56
2022-10-16T02:55:31.575Z,91.71
2022-10-16T02:56:11.212Z,91.59
2022-10-16T02:56:49.475Z,91.64
2022-10-16T02:57:26.903Z,91.56
2022-10-16T02:58:04.156Z,91.97
2022-10-16T02:58:40.371Z,91.37
2022-10-16T02:59:17.257Z,91.64
2022-10-16T02:59:48.860Z,91.71
2022-10-16T03:00:22.343Z,92.01
2022-10-16T03:01:02.955Z,92.02
2022-10-16T03:01:34.825Z,91.57
2022-10-16T03:02:06.420Z,91.93
2022-10-16T03:02:40.477Z,91.67
2022-10-16T03:03:14.233Z,91.61
2022-10-16T03:03:48.089Z,91.93
2022-10-16T03:04:21.679Z,92.40
2022-10-16T03:05:08.807Z,91.91
2022-10-16T03:05:52.936Z,91.87
2022-10-16T03:06:26.680Z,92.31
2022-10-16T03:07:06.430Z,92.24
2022-10-16T03:07:40.493Z,91.91
2022-10-16T03:08:15.763Z,91.83
2022-10-16T03:08:52.974Z,92.18
2022-10-16T03:09:29.476Z,92.13
2022-10-16T03:10:02.552Z,92.56
2022-10-16T03:10:41.489Z,92.46
2022-10-16T03:11:18.878Z,91.81
2022-10-16T03:11:54.853Z,92.18
2022-10-16T03:12:31.728Z,91.79
2022-10-16T03:13:07.416Z,92.01
2022-10-16T03:13:47.775Z,91.96
2022-10-16T03:14:24.404Z,91.52
2022-10-16T03:14:57.973Z,92.70
2022-10-16T03:15:31.723Z,92.18
2022-10-16T03:16:08.981Z,91.94
2022-10-16T03:16:48.263Z,91.97
2022-10-16T03:17:29.572Z,92.08
2022-10-16T03:18:06.564Z,91.86
2022-10-16T03:18:47.240Z,92.11
2022-10-16T03:19:19.487Z,92.05
2022-10-16T03:19:54.156Z,92.39
2022-10-16T03:20:38.633Z,91.98
2022-10-16T03:21:11.526Z,92.43
2022-10-16T03:21:47.625Z,92.39
2022-10-16T03:22:21.513Z,92.44
2022-10-16T03:22:53.289Z,92.15
2022-10-16T03:23:36.553Z,92.64
2022-10-16T03:24:08.237Z,92.28
2022-10-16T03:24:39.835Z,92.09
2022-10-16T03:25:16.286Z,92.14
2022-10-16T03:25:55.898Z,92.33
2022-10-16T03:26:32.058Z,92.77
2022-10-16T03:27:08.720Z,92.58
2022-10-16T03:27:45.628Z,92.63
2022-10-16T03:28:17.047Z,92.36
2022-10-16T03:28:54.972Z,92.75
2022-10-16T03:29:33.052Z,92.91
2022-10-16T03:30:04.916Z,92.75
2022-10-16T03:30:43.511Z,92.65
2022-10-16T03:31:16.148Z,92.28
2022-10-16T03:31:56.495Z,92.61
2022-10-16T03:33:09.032Z,92.59
2022-10-16T03:33:42.609Z,92.67
2022-10-16T03:34:21.471Z,92.33
2022-10-16T03:34:55.182Z,92.51
2022-10-16T03:35:38.277Z,92.51
2022-10-16T03:36:12.799Z,92.45
2022-10-16T03:36:44.488Z,92.53
2022-10-16T03:37:18.470Z,92.73
2022-10-16T03:37:51.379Z,92.63
2022-10-16T03:38:26.994Z,92.44
2022-10-16T03:39:10.258Z,92.49
2022-10-16T03:39:41.685Z,92.77
2022-10-16T03:40:19.840Z,92.50
2022-10-16T03:41:03.805Z,93.13
2022-10-16T03:41:42.790Z,92.46
2022-10-16T03:42:24.374Z,92.53
2022-10-16T03:43:11.774Z,93.00
2022-10-16T03:43:53.085Z,92.96
2022-10-16T03:44:29.670Z,92.95
2022-10-16T03:45:11.735Z,92.64
2022-10-16T03:45:55.146Z,93.29
2022-10-16T03:46:32.655Z,92.82
2022-10-16T03:47:09.475Z,93.60
2022-10-16T03:47:48.779Z,93.04
2022-10-16T03:48:25.820Z,92.84
2022-10-16T03:48:57.238Z,92.70
2022-10-16T03:49:39.573Z,92.71
2022-10-16T03:50:18.598Z,92.90
2022-10-16T03:51:07.801Z,92.71
2022-10-16T03:51:41.469Z,93.02
2022-10-16T03:52:30.586Z,92.80
2022-10-16T03:53:06.280Z,92.96
2022-10-16T03:53:50.110Z,93.47
2022-10-16T03:54:29.593Z,93.13
2022-10-16T03:55:13.582Z,92.91
2022-10-16T03:55:59.416Z,93.26
2022-10-16T03:56:32.320Z,93.03
2022-10-16T03:57:16.269Z,92.94
2022-10-16T03:57:55.022Z,93.15
2022-10-16T03:58:32.036Z,93.01
2022-10-16T03:59:15.696Z,92.61
2022-10-16T03:59:56.243Z,92.97
2022-10-16T04:00:30.482Z,93.09
2022-10-16T04:01:06.933Z,93.28
2022-10-16T04:01:49.646Z,93.28
2022-10-16T04:02:22.199Z,93.42
2022-10-16T04:02:59.870Z,93.08
2022-10-16T04:03:31.251Z,93.26
2022-10-16T04:04:15.449Z,93.18
2022-10-16T04:04:52.796Z,93.23
2022-10-16T04:05:27.289Z,93.00
2022-10-16T04:06:03.986Z,93.49
2022-10-16T04:06:35.561Z,93.17
2022-10-16T04:07:14.333Z,93.45
2022-10-16T04:07:50.530Z,92.97
2022-10-16T04:08:28.082Z,93.42
2022-10-16T04:09:01.672Z,93.02
2022-10-16T04:09:41.955Z,92.99
2022-10-16T04:10:13.546Z,93.33
2022-10-16T04:10:54.029Z,93.22
2022-10-16T04:11:25.438Z,93.20
2022-10-16T04:12:02.663Z,92.83
2022-10-16T04:12:41.544Z,93.15
2022-10-16T04:13:49.676Z,93.45
2022-10-16T04:14:24.081Z,92.99
2022-10-16T04:15:13.094Z,93.58
2022-10-16T04:15:48.248Z,92.97
2022-10-16T04:16:28.115Z,93.25
2022-10-16T04:17:00.594Z,93.56
2022-10-16T04:17:36.373Z,93.66
2022-10-16T04:18:15.958Z,93.59
2022-10-16T04:18:52.689Z,93.85
2022-10-16T04:19:26.810Z,93.58
2022-10-16T04:20:01.993Z,93.92
2022-10-16T04:20:36.560Z,94.03
2022-10-16T04:21:19.327Z,93.89
2022-10-16T04:22:01.633Z,93.44
2022-10-16T04:22:38.392Z,93.50
2022-10-16T04:23:14.679Z,93.45
2022-10-16T04:23:53.490Z,93.71
2022-10-16T04:24:27.782Z,93.11
2022-10-16T04:25:04.222Z,93.53
2022-10-16T04:25:39.899Z,93.44
2022-10-16T04:26:12.514Z,93.38
2022-10-16T04:26:48.636Z,93.59
2022-10-16T04:27:26.022Z,93.70
2022-10-16T04:28:02.257Z,93.90
2022-10-16T04:28:39.428Z,93.33
2022-10-16T04:29:19.396Z,93.53
2022-10-16T04:29:59.542Z,93.48
2022-10-16T04:30:30.961Z,93.48
2022-10-16T04:31:13.956Z,93.27
2022-10-16T04:32:00.491Z,93.17
2022-10-16T04:32:37.844Z,93.42
2022-10-16T04:33:19.561Z,93.36
2022-10-16T04:33:54.271Z,93.41
2022-10-16T04:34:28.677Z,93.45
2022-10-16T04:35:04.547Z,93.37
2022-10-16T04:36:52.966Z,93.74
2022-10-16T04:37:26.516Z,93.44
2022-10-16T04:37:59.580Z,93.46
2022-10-16T04:38:31.295Z,93.01
2022-10-16T04:39:10.444Z,93.33
2022-10-16T04:39:54.374Z,93.24
2022-10-16T04:40:42.079Z,93.30
2022-10-16T04:41:16.267Z,93.53
2022-10-16T04:41:54.985Z,93.59
2022-10-16T04:42:33.941Z,93.17
2022-10-16T04:43:06.949Z,93.59
2022-10-16T04:43:38.378Z,93.48
2022-10-16T04:44:20.951Z,93.60
2022-10-16T04:44:55.922Z,93.59
2022-10-16T04:45:35.111Z,93.83
2022-10-16T04:46:16.361Z,94.16
2022-10-16T04:46:52.116Z,93.53
2022-10-16T04:47:26.044Z,93.73
2022-10-16T04:48:20.577Z,93.67
2022-10-16T04:49:00.448Z,93.65
2022-10-16T04:49:40.248Z,94.12
2022-10-16T04:50:14.523Z,93.89
2022-10-16T04:51:00.804Z,93.47
2022-10-16T04:51:44.243Z,93.74
2022-10-16T04:52:18.932Z,93.81
2022-10-16T04:52:54.586Z,94.23
2022-10-16T04:53:30.486Z,94.38
2022-10-16T04:54:04.147Z,94.26
2022-10-16T04:54:40.476Z,93.87
2022-10-16T04:55:24.004Z,94.46
2022-10-16T04:56:05.743Z,93.97
2022-10-16T04:56:55.041Z,93.96
2022-10-16T04:57:33.918Z,94.40
2022-10-16T04:58:07.159Z,94.07
2022-10-16T04:58:42.330Z,94.21
2022-10-16T04:59:26.153Z,94.19
2022-10-16T05:00:01.976Z,94.32
2022-10-16T05:00:44.509Z,94.04
2022-10-16T05:01:17.183Z,94.25
2022-10-16T05:01:51.195Z,94.39
2022-10-16T05:02:28.507Z,94.34
2022-10-16T05:03:14.600Z,94.15
2022-10-16T05:03:52.916Z,94.24
2022-10-16T05:04:24.512Z,93.99
2022-10-16T05:04:58.532Z,93.79
2022-10-16T05:05:33.367Z,93.81
2022-10-16T05:06:26.309Z,94.47
2022-10-16T05:07:07.980Z,93.86
2022-10-16T05:07:46.774Z,94.16
2022-10-16T05:08:20.503Z,93.83
2022-10-16T05:08:56.150Z,94.34
2022-10-16T05:09:30.356Z,93.84
2022-10-16T05:10:10.686Z,93.73
2022-10-16T05:10:45.902Z,94.20
2022-10-16T05:11:39.732Z,94.05
2022-10-16T05:12:33.608Z,93.76
2022-10-16T05:13:05.091Z,94.17
2022-10-16T05:13:39.605Z,93.77
2022-10-16T05:14:19.404Z,94.44
2022-10-16T05:15:01.025Z,94.49
2022-10-16T05:15:36.829Z,94.27
2022-10-16T05:16:10.297Z,94.02
2022-10-16T05:16:51.033Z,94.44
2022-10-16T05:17:22.807Z,94.03
2022-10-16T05:17:59.083Z,94.39
2022-10-16T05:18:31.712Z,94.10
2022-10-16T05:19:26.145Z,94.38
2022-10-16T05:20:04.688Z,93.90
2022-10-16T05:21:28.314Z,94.10
2022-10-16T05:22:00.103Z,94.48
2022-10-16T05:22:41.920Z,93.60
2022-10-16T05:23:17.974Z,94.37
2022-10-16T05:23:51.675Z,94.08
2022-10-16T05:24:25.101Z,94.51
2022-10-16T05:25:03.415Z,93.85
2022-10-16T05:25:38.437Z,94.37
2022-10-16T05:26:11.221Z,94.46
2022-10-16T05:26:54.186Z,93.96
2022-10-16T05:27:34.413Z,94.34
2022-10-16T05:28:08.222Z,93.84
2022-10-16T05:28:41.348Z,94.06
2022-10-16T05:29:12.966Z,94.05
2022-10-16T05:29:59.075Z,94.22
2022-10-16T05:30:40.324Z,94.39
2022-10-16T05:31:23.648Z,94.38
2022-10-16T05:32:06.936Z,94.41
2022-10-16T05:32:51.654Z,94.15
2022-10-16T05:33:52.037Z,94.65
2022-10-16T05:34:29.360Z,94.18
2022-10-16T05:35:08.747Z,94.21
2022-10-16T05:35:50.868Z,94.54
2022-10-16T05:36:40.065Z,94.01
2022-10-16T05:37:22.440Z,94.48
2022-10-16T05:37:58.126Z,94.25
2022-10-16T05:38:41.222Z,94.19
2022-10-16T05:39:15.022Z,94.34
2022-10-16T05:39:50.780Z,94.58
2022-10-16T05:40:54.132Z,94.14
2022-10-16T05:41:36.409Z,94.41
2022-10-16T05:42:16.395Z,94.65
2022-10-16T05:43:03.020Z,94.25
2022-10-16T05:43:43.129Z,94.63
2022-10-16T05:44:45.403Z,94.16
2022-10-16T05:45:23.596Z,94.44
2022-10-16T05:46:28.804Z,94.51
2022-10-16T05:47:03.765Z,94.47
2022-10-16T05:47:58.308Z,94.58
2022-10-16T05:48:37.580Z,94.18
2022-10-16T05:49:13.438Z,94.53
2022-10-16T05:49:56.376Z,95.19
2022-10-16T05:50:38.695Z,94.60
2022-10-16T05:51:18.583Z,94.65
2022-10-16T05:51:52.333Z,94.75
2022-10-16T05:52:27.941Z,94.73
2022-10-16T05:52:59.369Z,95.14
2022-10-16T05:53:35.391Z,95.11
2022-10-16T05:54:21.975Z,94.92
2022-10-16T05:54:57.043Z,94.87
2022-10-16T05:55:30.913Z,95.33
2022-10-16T05:56:16.447Z,94.56
2022-10-16T05:56:58.968Z,95.13
2022-10-16T05:57:40.027Z,94.87
2022-10-16T05:58:25.739Z,94.79
2022-10-16T05:59:27.281Z,94.85
2022-10-16T06:01:22.023Z,94.65
2022-10-16T06:02:14.896Z,94.57
2022-10-16T06:02:48.893Z,94.61
2022-10-16T06:03:32.353Z,94.90
2022-10-16T06:04:06.415Z,94.83
2022-10-16T06:04:39.622Z,94.66
2022-10-16T06:05:14.084Z,94.59
2022-10-16T06:07:28.031Z,94.81
2022-10-16T06:08:10.056Z,95.50
2022-10-16T06:08:43.512Z,94.97
2022-10-16T06:09:15.154Z,94.73
2022-10-16T06:09:53.628Z,94.56
2022-10-16T06:10:50.358Z,94.85
2022-10-16T06:11:38.639Z,95.12
2022-10-16T06:12:21.022Z,95.08
2022-10-16T06:13:00.980Z,94.99
2022-10-16T06:13:46.215Z,94.59
2022-10-16T06:15:13.133Z,94.47
2022-10-16T06:15:44.756Z,94.43
2022-10-16T06:16:43.042Z,94.50
2022-10-16T06:17:31.500Z,94.88
2022-10-16T06:18:18.513Z,94.93
2022-10-16T06:19:01.809Z,95.12
2022-10-16T06:19:43.566Z,94.82
2022-10-16T06:20:19.496Z,95.03
2022-10-16T06:20:52.602Z,95.12
2022-10-16T06:21:34.753Z,95.21
2022-10-16T06:22:08.240Z,95.22
2022-10-16T06:22:39.617Z,95.28
2022-10-16T06:23:15.899Z,95.28
2022-10-16T06:24:37.555Z,95.32
2022-10-16T06:25:09.461Z,95.04
2022-10-16T06:25:45.699Z,94.69
2022-10-16T06:26:23.401Z,94.79
2022-10-16T06:27:06.928Z,94.73
2022-10-16T06:27:43.192Z,94.63
2022-10-16T06:28:15.349Z,94.43
2022-10-16T06:28:50.460Z,94.60
2022-10-16T06:29:23.855Z,94.75
2022-10-16T06:30:10.588Z,94.87
2022-10-16T06:30:47.453Z,94.70
2022-10-16T06:31:23.063Z,94.74
2022-10-16T06:31:57.000Z,94.25
2022-10-16T06:32:33.141Z,94.40
2022-10-16T06:33:30.245Z,94.90
2022-10-16T06:34:02.248Z,94.82
2022-10-16T06:34:45.483Z,94.83
2022-10-16T06:35:19.434Z,94.56
2022-10-16T06:35:50.981Z,94.98
2022-10-16T06:36:31.845Z,94.93
2022-10-16T06:37:20.866Z,95.09
2022-10-16T06:37:59.062Z,94.85
2022-10-16T06:38:37.948Z,94.50
2022-10-16T06:39:20.007Z,94.73
2022-10-16T06:40:04.896Z,94.60
2022-10-16T06:40:43.073Z,94.90
2022-10-16T06:41:22.817Z,94.43
2022-10-16T06:42:06.875Z,94.63
2022-10-16T06:42:59.941Z,94.47
2022-10-16T06:43:39.359Z,94.32
2022-10-16T06:44:13.152Z,94.32
2022-10-16T06:44:50.208Z,94.66
2022-10-16T06:45:26.746Z,94.39
2022-10-16T06:46:02.434Z,94.68
2022-10-16T06:46:34.827Z,94.78
2022-10-16T06:47:10.520Z,94.79
2022-10-16T06:47:43.108Z,94.81
2022-10-16T06:48:14.941Z,94.83
2022-10-16T06:48:51.255Z,94.57
2022-10-16T06:49:25.991Z,95.09
2022-10-16T06:49:57.695Z,95.05
2022-10-16T06:50:29.155Z,94.74
2022-10-16T06:51:43.176Z,94.64
2022-10-16T06:52:22.426Z,94.63
2022-10-16T06:53:04.065Z,94.92
2022-10-16T06:53:54.565Z,94.88
2022-10-16T06:54:29.919Z,95.27
2022-10-16T06:55:01.937Z,94.76
2022-10-16T06:55:39.336Z,95.17
2022-10-16T06:56:17.967Z,94.54
2022-10-16T06:56:57.348Z,94.64
2022-10-16T06:57:34.763Z,94.91
2022-10-16T06:58:10.818Z,94.61
2022-10-16T06:58:44.300Z,94.87
2022-10-16T06:59:18.555Z,94.99
2022-10-16T06:59:54.555Z,95.16
2022-10-16T07:00:26.869Z,95.23
2022-10-16T07:01:00.883Z,95.10
2022-10-16T07:01:32.804Z,94.87
2022-10-16T07:02:04.284Z,94.91
2022-10-16T07:02:44.363Z,94.55
2022-10-16T07:03:16.107Z,94.96
2022-10-16T07:03:48.080Z,95.35
2022-10-16T07:04:19.824Z,95.28
2022-10-16T07:04:51.967Z,94.74
2022-10-16T07:05:25.299Z,94.79
2022-10-16T07:05:57.177Z,94.88
2022-10-16T07:06:32.778Z,94.83
2022-10-16T07:07:08.568Z,95.13
2022-10-16T07:07:40.912Z,94.75
2022-10-16T07:08:12.304Z,94.92
2022-10-16T07:08:46.561Z,95.13
2022-10-16T07:09:18.349Z,95.09
2022-10-16T07:09:49.926Z,94.99
2022-10-16T07:10:25.137Z,94.58
2022-10-16T07:11:01.315Z,95.11
2022-10-16T07:11:33.809Z,95.22
2022-10-16T07:12:05.676Z,95.07
2022-10-16T07:12:37.120Z,94.64
2022-10-16T07:13:08.610Z,94.64
2022-10-16T07:13:41.957Z,94.62
2022-10-16T07:14:17.374Z,94.54
2022-10-16T07:14:49.056Z,94.44
2022-10-16T07:15:20.452Z,94.06
2022-10-16T07:15:51.883Z,94.35
2022-10-16T07:16:26.737Z,94.25
2022-10-16T07:16:58.104Z,94.68
2022-10-16T07:17:29.493Z,93.98
2022-10-16T07:18:01.127Z,94.56
2022-10-16T07:18:33.510Z,94.21
2022-10-16T07:19:04.975Z,94.24
2022-10-16T07:19:36.589Z,94.17
2022-10-16T07:20:08.630Z,93.69
2022-10-16T07:20:47.285Z,94.54
2022-10-16T07:21:21.520Z,93.67
2022-10-16T07:21:52.963Z,93.95
2022-10-16T07:22:24.649Z,93.33
2022-10-16T07:22:56.285Z,93.37
2022-10-16T07:23:27.750Z,93.63
2022-10-16T07:24:01.964Z,94.25
2022-10-16T07:24:33.546Z,93.90
2022-10-16T07:25:05.609Z,93.71
2022-10-16T07:25:37.001Z,93.29
2022-10-16T07:26:09.427Z,93.74
2022-10-16T07:26:45.362Z,93.74
2022-10-16T07:27:17.551Z,93.66
2022-10-16T07:27:49.006Z,93.58
2022-10-16T07:28:20.585Z,93.68
2022-10-16T07:28:52.567Z,93.64
2022-10-16T07:29:24.184Z,93.32
2022-10-16T07:29:55.599Z,93.86
2022-10-16T07:30:28.531Z,93.90
2022-10-16T07:31:05.461Z,93.74
2022-10-16T07:31:37.085Z,93.28
2022-10-16T07:32:08.523Z,93.93
2022-10-16T07:32:39.916Z,93.44
2022-10-16T07:33:11.286Z,93.34
2022-10-16T07:33:45.356Z,93.03
2022-10-16T07:34:19.225Z,93.59
2022-10-16T07:34:50.584Z,93.09
2022-10-16T07:35:21.996Z,93.63
2022-10-16T07:35:55.031Z,93.21
2022-10-16T07:37:19.109Z,93.26
2022-10-16T07:37:50.713Z,93.05
2022-10-16T07:38:22.912Z,92.83
2022-10-16T07:38:57.181Z,93.28
2022-10-16T07:39:31.596Z,92.87
2022-10-16T07:40:03.410Z,92.38
2022-10-16T07:40:34.738Z,92.19
2022-10-16T07:41:08.656Z,92.31
2022-10-16T07:41:40.170Z,92.35
2022-10-16T07:42:11.600Z,92.16
2022-10-16T07:42:42.985Z,92.35
2022-10-16T07:43:15.546Z,92.12
2022-10-16T07:43:50.618Z,92.27
2022-10-16T07:44:25.828Z,92.04
2022-10-16T07:45:00.413Z,92.45
2022-10-16T07:45:35.004Z,92.27
2022-10-16T07:46:07.296Z,91.81
2022-10-16T07:46:38.726Z,91.81
2022-10-16T07:47:10.386Z,91.78
2022-10-16T07:47:41.949Z,91.95
2022-10-16T07:48:13.333Z,92.30
2022-10-16T07:48:50.804Z,92.02
2022-10-16T07:49:22.453Z,92.15
2022-10-16T07:49:56.589Z,91.96
2022-10-16T07:50:28.019Z,91.90
2022-10-16T07:51:05.442Z,92.24
2022-10-16T07:51:36.950Z,91.92
2022-10-16T07:52:08.320Z,92.31
2022-10-16T07:52:39.946Z,92.08
2022-10-16T07:53:21.399Z,92.45
2022-10-16T07:53:55.306Z,92.09
2022-10-16T07:54:27.002Z,92.38
2022-10-16T07:54:59.756Z,91.82
2022-10-16T07:55:31.194Z,92.24
2022-10-16T07:56:05.319Z,92.17
2022-10-16T07:56:39.840Z,92.64
2022-10-16T07:57:20.392Z,92.39
2022-10-16T07:57:52.129Z,92.63
2022-10-16T07:58:23.626Z,92.56
2022-10-16T07:58:55.089Z,92.87
2022-10-16T07:59:26.528Z,92.75
2022-10-16T07:59:57.983Z,92.65
2022-10-16T08:00:31.778Z,92.74
2022-10-16T08:01:08.857Z,92.65
2022-10-16T08:01:40.409Z,93.02
2022-10-16T08:02:11.910Z,93.19
2022-10-16T08:02:43.469Z,92.95
2022-10-16T08:03:15.093Z,92.93
2022-10-16T08:03:48.903Z,93.23
2022-10-16T08:04:20.335Z,92.90
2022-10-16T08:04:51.687Z,92.70
2022-10-16T08:05:23.084Z,92.54
2022-10-16T08:05:54.511Z,93.13
2022-10-16T08:06:27.890Z,92.86
2022-10-16T08:06:59.610Z,92.88
2022-10-16T08:07:31.079Z,93.05
2022-10-16T08:08:03.528Z,92.97
2022-10-16T08:08:36.432Z,93.12
2022-10-16T08:09:22.171Z,92.66
2022-10-16T08:09:53.773Z,92.60
2022-10-16T08:10:31.860Z,93.24
2022-10-16T08:11:04.915Z,92.57
2022-10-16T08:11:36.512Z,92.58
2022-10-16T08:12:08.678Z,92.70
2022-10-16T08:12:42.660Z,92.91
2022-10-16T08:13:16.069Z,92.11
2022-10-16T08:13:48.041Z,92.78